West Point, Middle Peninsula Regional Airport (KFYJ)

NameMiddle Peninsula Regional Airport
CityWest Point
CountryUnited States
ICAOKFYJ
IATA
Altitude6 m
CoordinatesGoogle Map
Live Air TrafficLiveATC.net
METARKFYJ 160555Z AUTO 00000KT 4SM CLR 19/19 A3011 RMK AO1 T01910191 10240 20191 402990191
2019-09-16 05:55:00 Wind: North (0°) 0 m/s - Visibility: 6437.36 m - Temperature: 19 °C - Dew point: 19 °C - Humidity: 100% - Pressure: 1019.64 hPa
Statistics

The table below shows the detailed information of all flights to/from West Point, Middle Peninsula Regional Airport (KFYJ).